createdAt,value
2023-02-26T00:02:10.612Z,-1.90
2023-02-26T00:04:37.716Z,-2.03
2023-02-26T00:07:05.842Z,-2.15
2023-02-26T00:09:32.565Z,-2.24
2023-02-26T00:11:59.835Z,-2.28
2023-02-26T00:14:27.339Z,-2.29
2023-02-26T00:17:17.406Z,-2.23
2023-02-26T00:19:44.564Z,-2.02
2023-02-26T00:22:11.107Z,-1.96
2023-02-26T00:24:37.408Z,-1.84
2023-02-26T00:27:03.717Z,-1.75
2023-02-26T00:29:30.395Z,-1.68
2023-02-26T00:31:57.065Z,-1.62
2023-02-26T00:34:23.766Z,-1.58
2023-02-26T00:37:12.104Z,-1.48
2023-02-26T00:40:13.098Z,-1.35
2023-02-26T00:42:39.666Z,-1.18
2023-02-26T00:45:06.903Z,-1.13
2023-02-26T00:47:50.591Z,-1.08
2023-02-26T00:50:23.230Z,-1.00
2023-02-26T00:53:08.384Z,-1.03
2023-02-26T00:55:34.724Z,-1.03
2023-02-26T00:58:01.017Z,-1.04
2023-02-26T01:00:27.626Z,-1.00
2023-02-26T01:02:54.216Z,-1.01
2023-02-26T01:05:21.408Z,-1.03
2023-02-26T01:07:57.010Z,-1.00
2023-02-26T01:10:23.930Z,-1.02
2023-02-26T01:12:50.668Z,-1.02
2023-02-26T01:15:17.410Z,-1.01
2023-02-26T01:17:46.875Z,-0.97
2023-02-26T01:20:19.825Z,-0.95
2023-02-26T01:22:52.460Z,-0.81
2023-02-26T01:25:42.764Z,-0.56
2023-02-26T01:28:10.038Z,-0.40
2023-02-26T01:30:36.896Z,-0.32
2023-02-26T01:33:27.611Z,-0.21
2023-02-26T01:36:01.359Z,-0.09
2023-02-26T01:38:37.707Z,-0.03
2023-02-26T01:41:34.652Z,-0.04
2023-02-26T01:44:22.386Z,0.02
2023-02-26T01:47:13.568Z,0.05
2023-02-26T01:49:40.682Z,0.03
2023-02-26T01:52:32.816Z,-0.01
2023-02-26T01:54:59.186Z,-0.06
2023-02-26T01:57:25.532Z,-0.06
2023-02-26T01:59:53.777Z,-0.21
2023-02-26T02:02:25.433Z,-0.13
2023-02-26T02:04:52.715Z,-0.09
2023-02-26T02:07:19.211Z,-0.11
2023-02-26T02:09:47.389Z,-0.04
2023-02-26T02:12:37.980Z,-0.07
2023-02-26T02:15:21.106Z,0.03
2023-02-26T02:17:54.921Z,-0.02
2023-02-26T02:20:39.480Z,-0.04
2023-02-26T02:23:17.968Z,-0.17
2023-02-26T02:25:56.506Z,-0.28
2023-02-26T02:28:44.307Z,-0.20
2023-02-26T02:31:30.318Z,-0.27
2023-02-26T02:34:12.120Z,-0.17
2023-02-26T02:36:48.843Z,-0.19
2023-02-26T02:39:22.729Z,-0.20
2023-02-26T02:41:56.600Z,-0.20
2023-02-26T02:44:26.342Z,-0.22
2023-02-26T02:46:56.247Z,-0.22
2023-02-26T02:49:31.146Z,-0.24
2023-02-26T02:52:06.604Z,-0.32
2023-02-26T02:54:47.902Z,-0.40
2023-02-26T02:57:30.200Z,-0.59
2023-02-26T03:00:01.495Z,-0.64
2023-02-26T03:02:43.176Z,-0.70
2023-02-26T03:05:09.527Z,-0.78
2023-02-26T03:07:42.002Z,-0.82
2023-02-26T03:10:09.313Z,-0.84
2023-02-26T03:12:35.862Z,-0.89
2023-02-26T03:15:03.064Z,-0.97
2023-02-26T03:17:36.549Z,-1.04
2023-02-26T03:20:20.389Z,-1.08
2023-02-26T03:22:57.310Z,-1.23
2023-02-26T03:25:42.083Z,-1.19
2023-02-26T03:28:29.182Z,-1.20
2023-02-26T03:31:17.664Z,-1.22
2023-02-26T03:34:15.264Z,-1.19
2023-02-26T03:36:56.321Z,-1.17
2023-02-26T03:39:28.483Z,-1.16
2023-02-26T03:42:02.285Z,-1.18
2023-02-26T03:44:34.717Z,-1.14
2023-02-26T03:47:07.240Z,-1.14
2023-02-26T03:49:39.945Z,-1.10
2023-02-26T03:52:07.404Z,-1.13
2023-02-26T03:54:46.715Z,-1.22
2023-02-26T03:57:13.089Z,-1.35
2023-02-26T03:59:39.735Z,-1.33
2023-02-26T04:02:13.196Z,-1.39
2023-02-26T04:05:03.076Z,-1.38
2023-02-26T04:07:30.013Z,-1.47
2023-02-26T04:09:56.545Z,-1.42
2023-02-26T04:12:24.426Z,-1.35
2023-02-26T04:14:50.817Z,-1.41
2023-02-26T04:17:18.782Z,-1.50
2023-02-26T04:19:45.228Z,-1.63
2023-02-26T04:22:12.348Z,-1.60
2023-02-26T04:24:38.856Z,-1.66
2023-02-26T04:27:05.228Z,-1.87
2023-02-26T04:29:31.617Z,-1.81
2023-02-26T04:32:01.733Z,-1.84
2023-02-26T04:34:28.090Z,-1.94
2023-02-26T04:36:54.459Z,-1.93
2023-02-26T04:39:20.882Z,-2.00
2023-02-26T04:41:47.448Z,-1.94
2023-02-26T04:44:13.735Z,-2.00
2023-02-26T04:46:40.342Z,-1.72
2023-02-26T04:49:06.739Z,-1.66
2023-02-26T04:51:33.211Z,-1.72
2023-02-26T04:53:59.537Z,-1.71
2023-02-26T04:56:26.708Z,-1.80
2023-02-26T04:58:53.192Z,-1.91
2023-02-26T05:01:19.540Z,-1.88
2023-02-26T05:03:45.926Z,-1.78
2023-02-26T05:06:12.425Z,-1.62
2023-02-26T05:08:42.074Z,-1.62
2023-02-26T05:11:12.392Z,-1.65
2023-02-26T05:13:39.030Z,-1.69
2023-02-26T05:16:06.955Z,-1.64
2023-02-26T05:18:33.432Z,-1.72
2023-02-26T05:20:59.827Z,-1.64
2023-02-26T05:23:27.104Z,-1.64
2023-02-26T05:25:56.470Z,-1.61
2023-02-26T05:28:23.948Z,-1.65
2023-02-26T05:30:50.321Z,-1.55
2023-02-26T05:33:16.749Z,-1.54
2023-02-26T05:35:43.410Z,-1.50
2023-02-26T05:38:09.727Z,-1.60
2023-02-26T05:40:36.053Z,-1.67
2023-02-26T05:43:02.588Z,-1.71
2023-02-26T05:45:28.929Z,-1.67
2023-02-26T05:47:55.828Z,-1.67
2023-02-26T05:50:22.196Z,-1.59
2023-02-26T05:52:48.608Z,-1.68
2023-02-26T05:55:15.020Z,-1.68
2023-02-26T05:57:41.310Z,-1.74
2023-02-26T06:00:08.987Z,-1.76
2023-02-26T06:02:35.273Z,-1.73
2023-02-26T06:05:01.589Z,-1.55
2023-02-26T06:07:27.961Z,-1.56
2023-02-26T06:09:54.238Z,-1.66
2023-02-26T06:12:20.539Z,-1.58
2023-02-26T06:14:46.816Z,-1.46
2023-02-26T06:17:13.223Z,-1.56
2023-02-26T06:19:39.551Z,-1.46
2023-02-26T06:22:05.902Z,-1.48
2023-02-26T06:24:32.277Z,-1.47
2023-02-26T06:26:58.596Z,-1.41
2023-02-26T06:29:24.982Z,-1.42
2023-02-26T06:31:51.356Z,-1.37
2023-02-26T06:34:18.025Z,-1.35
2023-02-26T06:36:45.236Z,-1.19
2023-02-26T06:39:12.610Z,-1.12
2023-02-26T06:41:38.966Z,-1.01
2023-02-26T06:44:05.454Z,-0.96
2023-02-26T06:46:31.807Z,-0.88
2023-02-26T06:49:00.477Z,-0.84
2023-02-26T06:51:26.904Z,-0.83
2023-02-26T06:53:53.280Z,-0.81
2023-02-26T06:56:19.610Z,-0.93
2023-02-26T06:58:45.911Z,-0.86
2023-02-26T07:01:12.232Z,-0.84
2023-02-26T07:03:38.496Z,-0.76
2023-02-26T07:06:38.458Z,-0.71
2023-02-26T07:08:54.430Z,-0.67
2023-02-26T07:11:21.012Z,-0.63
2023-02-26T07:13:47.315Z,-0.58
2023-02-26T07:16:13.626Z,-0.55
2023-02-26T07:18:40.035Z,-0.56
2023-02-26T07:21:07.472Z,-0.63
2023-02-26T07:23:33.784Z,-0.58
2023-02-26T07:26:00.246Z,-0.50
2023-02-26T07:28:26.767Z,-0.43
2023-02-26T07:30:57.455Z,-0.40
2023-02-26T07:33:24.907Z,-0.42
2023-02-26T07:35:51.160Z,-0.37
2023-02-26T07:38:19.468Z,-0.41
2023-02-26T07:40:46.685Z,-0.39
2023-02-26T07:43:13.306Z,-0.38
2023-02-26T07:48:08.377Z,-0.28
2023-02-26T07:50:34.726Z,-0.17
2023-02-26T07:53:01.004Z,0.01
2023-02-26T07:55:27.651Z,0.09
2023-02-26T07:57:53.957Z,0.17
2023-02-26T08:00:20.466Z,0.17
2023-02-26T08:02:47.703Z,0.23
2023-02-26T08:05:14.112Z,0.23
2023-02-26T08:07:40.453Z,0.25
2023-02-26T08:10:07.195Z,0.30
2023-02-26T08:12:33.532Z,0.35
2023-02-26T08:14:59.855Z,0.46
2023-02-26T08:17:26.231Z,0.60
2023-02-26T08:19:52.630Z,0.66
2023-02-26T08:22:19.660Z,0.69
2023-02-26T08:24:45.962Z,0.66
2023-02-26T08:27:13.647Z,0.57
2023-02-26T08:29:40.088Z,0.43
2023-02-26T08:32:06.515Z,0.42
2023-02-26T08:34:32.857Z,0.47
2023-02-26T08:36:59.204Z,0.53
2023-02-26T08:39:25.579Z,0.61
2023-02-26T08:41:51.843Z,0.74
2023-02-26T08:44:18.454Z,0.94
2023-02-26T08:46:44.832Z,1.24
2023-02-26T08:49:11.202Z,1.32
2023-02-26T08:51:37.517Z,1.36
2023-02-26T08:54:03.810Z,1.30
2023-02-26T08:56:31.685Z,1.30
2023-02-26T08:58:57.969Z,1.30
2023-02-26T09:01:24.815Z,1.18
2023-02-26T09:03:51.423Z,1.22
2023-02-26T09:06:20.130Z,1.47
2023-02-26T09:08:46.470Z,1.62
2023-02-26T09:11:12.798Z,1.58
2023-02-26T09:13:39.283Z,1.49
2023-02-26T09:16:06.223Z,1.47
2023-02-26T09:18:33.081Z,1.55
2023-02-26T09:20:59.458Z,1.72
2023-02-26T09:23:25.817Z,1.83
2023-02-26T09:25:57.020Z,1.93
2023-02-26T09:28:24.923Z,2.00
2023-02-26T09:30:53.291Z,1.83
2023-02-26T09:33:19.846Z,1.72
2023-02-26T09:35:51.418Z,1.61
2023-02-26T09:38:18.504Z,1.54
2023-02-26T09:40:53.331Z,1.65
2023-02-26T09:43:47.067Z,1.78
2023-02-26T09:46:28.667Z,2.10
2023-02-26T09:49:05.608Z,2.44
2023-02-26T09:51:35.152Z,2.68
2023-02-26T09:54:14.784Z,2.87
2023-02-26T09:56:41.325Z,3.05
2023-02-26T09:59:09.651Z,3.11
2023-02-26T10:01:45.656Z,3.21
2023-02-26T10:04:37.446Z,3.24
2023-02-26T10:07:06.472Z,2.90
2023-02-26T10:09:57.028Z,2.98
2023-02-26T10:12:27.437Z,2.81
2023-02-26T10:15:03.923Z,2.77
2023-02-26T10:18:07.713Z,2.63
2023-02-26T10:20:53.187Z,2.63
2023-02-26T10:23:36.141Z,2.92
2023-02-26T10:26:13.716Z,3.11
2023-02-26T10:28:54.508Z,3.54
2023-02-26T10:31:35.150Z,3.55
2023-02-26T10:34:32.870Z,3.23
2023-02-26T10:37:13.693Z,2.80
2023-02-26T10:39:55.539Z,2.92
2023-02-26T10:42:27.436Z,3.00
2023-02-26T10:45:09.120Z,3.21
2023-02-26T10:48:09.095Z,3.33
2023-02-26T10:50:36.185Z,3.63
2023-02-26T10:53:03.826Z,3.83
2023-02-26T10:55:38.813Z,3.78
2023-02-26T10:58:14.895Z,3.41
2023-02-26T11:00:47.379Z,3.91
2023-02-26T11:03:18.784Z,4.26
2023-02-26T11:05:46.449Z,4.69
2023-02-26T11:08:19.358Z,4.93
2023-02-26T11:10:57.758Z,4.74
2023-02-26T11:13:27.225Z,4.83
2023-02-26T11:16:04.693Z,4.77
2023-02-26T11:18:54.047Z,5.08
2023-02-26T11:21:28.751Z,5.71
2023-02-26T11:24:01.745Z,5.32
2023-02-26T11:26:34.158Z,5.24
2023-02-26T11:29:00.706Z,4.75
2023-02-26T11:31:28.609Z,4.32
2023-02-26T11:34:08.851Z,4.63
2023-02-26T11:36:40.459Z,4.76
2023-02-26T11:39:25.916Z,4.68
2023-02-26T11:41:56.848Z,4.84
2023-02-26T11:44:34.719Z,5.07
2023-02-26T11:47:06.334Z,4.83
2023-02-26T11:49:33.019Z,4.98
2023-02-26T11:52:11.589Z,5.06
2023-02-26T11:54:39.580Z,4.93
2023-02-26T11:57:16.028Z,4.69
2023-02-26T11:59:47.616Z,4.45
2023-02-26T12:02:15.463Z,4.33
2023-02-26T12:04:50.044Z,4.59
2023-02-26T12:07:17.926Z,4.88
2023-02-26T12:09:45.255Z,4.93
2023-02-26T12:12:46.146Z,4.79
2023-02-26T12:15:21.519Z,5.02
2023-02-26T12:18:01.934Z,5.25
2023-02-26T12:20:46.841Z,5.13
2023-02-26T12:23:27.549Z,5.42
2023-02-26T12:26:17.313Z,5.46
2023-02-26T12:28:50.397Z,5.16
2023-02-26T12:31:25.441Z,5.29
2023-02-26T12:34:11.483Z,5.42
2023-02-26T12:37:10.675Z,5.48
2023-02-26T12:40:12.522Z,5.34
2023-02-26T12:42:51.351Z,5.02
2023-02-26T12:45:39.032Z,5.04
2023-02-26T12:49:10.571Z,5.14
2023-02-26T12:51:39.489Z,4.91
2023-02-26T12:54:36.439Z,4.95
2023-02-26T12:57:15.897Z,4.95
2023-02-26T12:59:59.629Z,4.73
2023-02-26T13:02:42.257Z,4.53
2023-02-26T13:05:41.913Z,4.52
2023-02-26T13:08:22.467Z,4.54
2023-02-26T13:11:10.570Z,4.51
2023-02-26T13:14:21.383Z,4.41
2023-02-26T13:16:53.577Z,4.59
2023-02-26T13:19:39.315Z,4.43
2023-02-26T13:22:18.853Z,4.43
2023-02-26T13:25:01.034Z,4.36
2023-02-26T13:27:33.531Z,4.32
2023-02-26T13:30:20.846Z,4.31
2023-02-26T13:32:51.003Z,4.28
2023-02-26T13:35:26.961Z,4.28
2023-02-26T13:37:56.326Z,4.47
2023-02-26T13:40:54.576Z,4.47
2023-02-26T13:43:36.341Z,4.26
2023-02-26T13:46:47.844Z,4.35
2023-02-26T13:49:23.436Z,4.35
2023-02-26T13:51:53.222Z,4.20
2023-02-26T13:54:22.488Z,4.26
2023-02-26T13:56:48.771Z,4.22
2023-02-26T13:59:19.348Z,4.29
2023-02-26T14:01:46.594Z,4.19
2023-02-26T14:04:25.022Z,4.11
2023-02-26T14:06:52.997Z,3.98
2023-02-26T14:09:22.351Z,3.92
2023-02-26T14:12:13.506Z,3.97
2023-02-26T14:14:43.878Z,3.99
2023-02-26T14:17:10.165Z,3.99
2023-02-26T14:19:42.648Z,3.86
2023-02-26T14:22:23.625Z,3.80
2023-02-26T14:25:08.412Z,3.70
2023-02-26T14:27:40.126Z,3.55
2023-02-26T14:30:09.276Z,3.51
2023-02-26T14:32:56.891Z,3.58
2023-02-26T14:35:26.112Z,3.84
2023-02-26T14:38:18.674Z,3.83
2023-02-26T14:40:48.968Z,3.82
2023-02-26T14:43:40.281Z,3.87
2023-02-26T14:46:08.722Z,3.87
2023-02-26T14:48:36.924Z,4.15
2023-02-26T14:51:08.942Z,4.28
2023-02-26T14:54:09.283Z,4.19
2023-02-26T14:56:58.953Z,3.97
2023-02-26T14:59:46.939Z,3.73
2023-02-26T15:02:26.900Z,3.74
2023-02-26T15:05:05.004Z,3.69
2023-02-26T15:07:48.556Z,3.71
2023-02-26T15:10:40.047Z,3.52
2023-02-26T15:13:35.948Z,3.38
2023-02-26T15:16:15.954Z,3.47
2023-02-26T15:18:55.648Z,3.54
2023-02-26T15:21:57.033Z,3.50
2023-02-26T15:24:23.877Z,3.45
2023-02-26T15:26:55.347Z,3.33
2023-02-26T15:29:27.910Z,3.28
2023-02-26T15:32:01.338Z,3.26
2023-02-26T15:34:28.208Z,3.33
2023-02-26T15:36:54.753Z,3.38
2023-02-26T15:39:23.668Z,3.40
2023-02-26T15:41:52.113Z,3.33
2023-02-26T15:44:24.582Z,3.38
2023-02-26T15:46:56.407Z,3.41
2023-02-26T15:49:30.334Z,3.39
2023-02-26T15:51:58.202Z,3.35
2023-02-26T15:54:29.571Z,3.26
2023-02-26T15:56:56.718Z,3.14
2023-02-26T15:59:28.860Z,2.94
2023-02-26T16:01:55.427Z,2.81
2023-02-26T16:04:22.916Z,2.71
2023-02-26T16:06:58.220Z,2.66
2023-02-26T16:09:34.674Z,2.63
2023-02-26T16:12:07.779Z,2.53
2023-02-26T16:14:38.354Z,2.48
2023-02-26T16:17:07.868Z,2.37
2023-02-26T16:19:44.336Z,2.24
2023-02-26T16:22:23.786Z,2.10
2023-02-26T16:24:57.677Z,2.04
2023-02-26T16:27:28.232Z,1.95
2023-02-26T16:29:57.791Z,1.93
2023-02-26T16:32:26.473Z,1.76
2023-02-26T16:34:55.977Z,1.73
2023-02-26T16:37:33.930Z,1.70
2023-02-26T16:40:19.991Z,1.46
2023-02-26T16:43:06.349Z,1.36
2023-02-26T16:45:35.575Z,1.49
2023-02-26T16:48:29.705Z,1.47
2023-02-26T16:51:20.145Z,1.34
2023-02-26T16:53:59.381Z,1.50
2023-02-26T16:56:30.554Z,1.44
2023-02-26T16:59:16.786Z,1.40
2023-02-26T17:02:18.426Z,1.45
2023-02-26T17:04:49.869Z,1.40
2023-02-26T17:07:25.412Z,1.35
2023-02-26T17:09:57.932Z,1.29
2023-02-26T17:12:40.100Z,1.19
2023-02-26T17:15:18.013Z,1.09
2023-02-26T17:17:44.693Z,1.05
2023-02-26T17:20:11.441Z,1.10
2023-02-26T17:22:38.136Z,1.16
2023-02-26T17:25:05.979Z,1.14
2023-02-26T17:27:35.218Z,1.04
2023-02-26T17:30:04.956Z,0.99
2023-02-26T17:32:31.497Z,0.91
2023-02-26T17:34:58.487Z,0.84
2023-02-26T17:37:29.749Z,0.85
2023-02-26T17:39:57.541Z,0.80
2023-02-26T17:42:23.931Z,0.83
2023-02-26T17:44:50.423Z,0.81
2023-02-26T17:47:20.190Z,0.70
2023-02-26T17:49:46.841Z,0.66
2023-02-26T17:52:13.692Z,0.63
2023-02-26T17:54:40.424Z,0.61
2023-02-26T17:57:07.604Z,0.38
2023-02-26T17:59:34.069Z,0.45
2023-02-26T18:02:00.760Z,0.60
2023-02-26T18:04:27.228Z,0.61
2023-02-26T18:06:53.635Z,0.61
2023-02-26T18:09:19.973Z,0.61
2023-02-26T18:11:46.359Z,0.58
2023-02-26T18:14:12.698Z,0.67
2023-02-26T18:16:43.341Z,0.76
2023-02-26T18:19:13.707Z,0.85
2023-02-26T18:21:40.298Z,1.00
2023-02-26T18:24:07.190Z,1.05
2023-02-26T18:26:33.964Z,1.15
2023-02-26T18:29:00.407Z,1.19
2023-02-26T18:31:34.303Z,1.19
2023-02-26T18:34:01.605Z,1.18
2023-02-26T18:36:37.402Z,1.18
2023-02-26T18:39:11.043Z,1.10
2023-02-26T18:41:37.594Z,1.11
2023-02-26T18:44:04.220Z,1.06
2023-02-26T18:46:30.677Z,1.11
2023-02-26T18:48:57.141Z,1.10
2023-02-26T18:51:23.461Z,1.11
2023-02-26T18:53:49.940Z,1.12
2023-02-26T18:56:16.351Z,1.17
2023-02-26T18:58:42.632Z,1.13
2023-02-26T19:01:09.039Z,1.23
2023-02-26T19:03:35.366Z,1.22
2023-02-26T19:06:04.849Z,1.19
2023-02-26T19:08:31.288Z,1.15
2023-02-26T19:10:58.451Z,1.23
2023-02-26T19:13:25.141Z,1.08
2023-02-26T19:15:51.577Z,1.16
2023-02-26T19:18:17.962Z,1.12
2023-02-26T19:20:44.329Z,1.16
2023-02-26T19:23:10.645Z,1.21
2023-02-26T19:25:37.669Z,1.21
2023-02-26T19:28:04.665Z,1.23
2023-02-26T19:30:30.955Z,1.19
2023-02-26T19:32:57.741Z,1.08
2023-02-26T19:35:26.909Z,1.13
2023-02-26T19:37:53.945Z,1.12
2023-02-26T19:40:20.446Z,1.08
2023-02-26T19:42:47.335Z,1.06
2023-02-26T19:45:17.333Z,1.02
2023-02-26T19:47:43.857Z,1.03
2023-02-26T19:50:11.012Z,1.04
2023-02-26T19:52:37.432Z,1.08
2023-02-26T19:55:07.556Z,1.03
2023-02-26T19:57:34.027Z,0.91
2023-02-26T20:00:00.433Z,0.85
2023-02-26T20:02:27.097Z,0.80
2023-02-26T20:04:53.451Z,0.90
2023-02-26T20:07:20.123Z,0.91
2023-02-26T20:09:48.143Z,0.94
2023-02-26T20:12:15.289Z,0.95
2023-02-26T20:14:41.592Z,0.94
2023-02-26T20:17:07.988Z,0.85
2023-02-26T20:19:34.388Z,0.81
2023-02-26T20:22:00.859Z,0.66
2023-02-26T20:24:29.398Z,0.50
2023-02-26T20:26:55.772Z,0.53
2023-02-26T20:29:23.459Z,0.39
2023-02-26T20:31:50.133Z,0.30
2023-02-26T20:34:19.037Z,0.22
2023-02-26T20:36:48.071Z,0.09
2023-02-26T20:39:14.866Z,0.07
2023-02-26T20:41:41.645Z,0.03
2023-02-26T20:44:07.908Z,0.06
2023-02-26T20:46:35.877Z,-0.07
2023-02-26T20:49:03.456Z,-0.17
2023-02-26T20:51:29.895Z,-0.21
2023-02-26T20:53:56.240Z,-0.07
2023-02-26T20:56:22.637Z,-0.17
2023-02-26T20:58:49.981Z,-0.18
2023-02-26T21:01:16.341Z,-0.20
2023-02-26T21:03:42.738Z,-0.23
2023-02-26T21:06:10.092Z,-0.17
2023-02-26T21:08:36.449Z,-0.24
2023-02-26T21:11:02.819Z,-0.22
2023-02-26T21:13:29.157Z,-0.36
2023-02-26T21:15:57.268Z,-0.36
2023-02-26T21:18:23.612Z,-0.49
2023-02-26T21:20:50.613Z,-0.43
2023-02-26T21:23:17.051Z,-0.64
2023-02-26T21:25:43.422Z,-0.61
2023-02-26T21:28:09.712Z,-0.68
2023-02-26T21:30:36.308Z,-0.55
2023-02-26T21:33:02.868Z,-0.64
2023-02-26T21:35:29.283Z,-0.38
2023-02-26T21:37:55.645Z,-0.39
2023-02-26T21:40:22.682Z,-0.47
2023-02-26T21:42:49.060Z,-0.54
2023-02-26T21:45:15.333Z,-0.64
2023-02-26T21:47:41.710Z,-0.85
2023-02-26T21:50:08.569Z,-0.85
2023-02-26T21:52:34.933Z,-0.80
2023-02-26T21:55:01.272Z,-0.71
2023-02-26T21:57:27.732Z,-0.71
2023-02-26T21:59:54.078Z,-0.72
2023-02-26T22:02:20.632Z,-0.84
2023-02-26T22:04:47.037Z,-0.88
2023-02-26T22:07:13.404Z,-0.72
2023-02-26T22:09:39.705Z,-0.65
2023-02-26T22:12:06.470Z,-0.55
2023-02-26T22:14:32.861Z,-0.63
2023-02-26T22:16:59.147Z,-0.58
2023-02-26T22:19:25.626Z,-0.47
2023-02-26T22:21:51.925Z,-0.43
2023-02-26T22:24:18.216Z,-0.48
2023-02-26T22:26:46.868Z,-0.61
2023-02-26T22:29:13.529Z,-0.61
2023-02-26T22:31:39.842Z,-0.50
2023-02-26T22:34:06.201Z,-0.44
2023-02-26T22:36:34.500Z,-0.51
2023-02-26T22:39:00.775Z,-0.39
2023-02-26T22:41:27.154Z,-0.37
2023-02-26T22:43:54.062Z,-0.46
2023-02-26T22:46:23.047Z,-0.54
2023-02-26T22:48:49.566Z,-0.70
2023-02-26T22:51:15.893Z,-0.84
2023-02-26T22:53:42.186Z,-0.82
2023-02-26T22:56:08.551Z,-0.76
2023-02-26T22:58:34.791Z,-0.85
2023-02-26T23:01:02.918Z,-0.97
2023-02-26T23:03:29.593Z,-0.86
2023-02-26T23:05:56.616Z,-0.96
2023-02-26T23:08:23.290Z,-0.95
2023-02-26T23:10:49.659Z,-1.03
2023-02-26T23:13:15.940Z,-0.98
2023-02-26T23:15:42.221Z,-0.97
2023-02-26T23:18:08.557Z,-1.08
2023-02-26T23:20:34.865Z,-1.18
2023-02-26T23:23:01.786Z,-1.28
2023-02-26T23:25:28.684Z,-1.30
2023-02-26T23:27:54.991Z,-1.32
2023-02-26T23:30:21.961Z,-1.32
2023-02-26T23:32:49.104Z,-1.39
2023-02-26T23:35:15.576Z,-1.33
2023-02-26T23:37:41.871Z,-1.34
2023-02-26T23:40:09.620Z,-1.40
2023-02-26T23:42:36.058Z,-1.48
2023-02-26T23:45:02.561Z,-1.42
2023-02-26T23:47:28.886Z,-1.38
2023-02-26T23:49:55.330Z,-1.25
2023-02-26T23:52:21.708Z,-1.33
2023-02-26T23:54:48.021Z,-1.22
2023-02-26T23:57:14.385Z,-1.30
2023-02-26T23:59:40.662Z,-1.41
